Time;durP1;ratioP1;P1;durP2;ratioP2;P2;SDS_P1;SDS_P2;PMS_P1;PMS_P2;Temp;Humidity;BMP_temperature;BMP_pressure;BME280_temperature;BME280_humidity;BME280_pressure;Samples;Min_cycle;Max_cycle;Signal;HPM_P1;HPM_P2
2023/02/18 00:00:56;;;;;;;2.08;0.90;;;;;;;10.52;100.00;99900.66;5043145;28;20139;-85
2023/02/18 00:03:23;;;;;;;0.93;0.85;;;;;;;10.58;100.00;99891.84;5046754;28;20041;-85
2023/02/18 00:05:50;;;;;;;1.10;0.98;;;;;;;10.62;100.00;99901.34;5051929;28;20045;-84
2023/02/18 00:08:17;;;;;;;2.05;1.00;;;;;;;10.61;100.00;99896.09;5049534;28;20050;-85
2023/02/18 00:10:43;;;;;;;2.40;0.90;;;;;;;10.67;100.00;99889.13;5039788;28;20052;-85
2023/02/18 00:13:12;;;;;;;1.80;1.10;;;;;;;10.74;100.00;99914.66;5046481;28;20053;-85
2023/02/18 00:15:39;;;;;;;2.10;0.95;;;;;;;10.73;100.00;99885.75;5049623;28;20040;-85
2023/02/18 00:18:07;;;;;;;1.27;1.00;;;;;;;10.82;100.00;99925.53;5047299;28;20053;-85
2023/02/18 00:20:35;;;;;;;1.90;0.90;;;;;;;10.73;100.00;99894.75;5052969;28;20056;-85
2023/02/18 00:23:01;;;;;;;1.30;0.93;;;;;;;10.82;100.00;99917.38;5050330;28;20084;-85
2023/02/18 00:25:28;;;;;;;2.15;0.80;;;;;;;10.87;100.00;99933.19;5050482;28;20041;-85
2023/02/18 00:27:55;;;;;;;5.03;1.10;;;;;;;10.80;100.00;99916.69;5045443;28;20045;-85
2023/02/18 00:30:23;;;;;;;2.20;1.13;;;;;;;10.73;100.00;99908.34;5045519;28;20052;-85
2023/02/18 00:32:50;;;;;;;3.08;1.00;;;;;;;10.87;100.00;99927.75;5047144;28;20044;-85
2023/02/18 00:35:16;;;;;;;1.25;1.08;;;;;;;10.81;100.00;99918.41;5053121;28;20120;-85
2023/02/18 00:37:43;;;;;;;1.13;0.98;;;;;;;10.73;100.00;99919.22;5053473;28;20063;-85
2023/02/18 00:40:10;;;;;;;1.35;0.80;;;;;;;10.64;100.00;99893.03;5043544;28;20048;-86
2023/02/18 00:42:36;;;;;;;1.80;0.90;;;;;;;10.80;100.00;99909.38;5045739;28;20053;-85
2023/02/18 00:45:03;;;;;;;4.15;0.80;;;;;;;10.76;100.00;99909.88;5046995;28;20045;-85
2023/02/18 00:47:31;;;;;;;1.45;1.13;;;;;;;10.69;100.00;99892.53;5052447;28;20049;-86
2023/02/18 00:49:58;;;;;;;1.42;1.10;;;;;;;10.75;100.00;99903.59;5043325;28;20051;-85
2023/02/18 00:52:24;;;;;;;7.60;3.90;;;;;;;10.82;100.00;99919.25;5049615;28;20064;-85
2023/02/18 00:54:51;;;;;;;4.85;2.20;;;;;;;10.61;100.00;99890.66;5050737;28;20053;-85
2023/02/18 00:57:18;;;;;;;1.83;1.65;;;;;;;10.60;100.00;99888.97;5045492;28;20045;-85
2023/02/18 00:59:44;;;;;;;1.45;1.10;;;;;;;10.59;100.00;99904.41;5051547;28;20074;-85
2023/02/18 01:02:11;;;;;;;1.63;1.10;;;;;;;10.69;100.00;99917.88;5042219;28;20057;-84
2023/02/18 01:04:39;;;;;;;1.30;1.20;;;;;;;10.71;100.00;99912.25;5043174;28;20044;-85
2023/02/18 01:07:06;;;;;;;1.23;0.98;;;;;;;10.73;100.00;99912.94;5045096;28;20063;-85
2023/02/18 01:09:32;;;;;;;1.63;1.30;;;;;;;10.68;100.00;99901.72;5049903;28;20053;-85
2023/02/18 01:11:59;;;;;;;1.45;1.20;;;;;;;10.69;100.00;99896.13;5050349;28;20055;-85
2023/02/18 01:14:25;;;;;;;2.63;1.70;;;;;;;10.79;100.00;99910.41;5043083;28;20052;-85
2023/02/18 01:16:52;;;;;;;1.35;1.25;;;;;;;10.77;100.00;99914.31;5048636;28;20476;-85
2023/02/18 01:19:19;;;;;;;1.20;1.10;;;;;;;10.78;100.00;99903.25;5050384;28;20045;-85
2023/02/18 01:21:49;;;;;;;1.92;1.27;;;;;;;10.78;100.00;99896.97;5044691;28;20051;-85
2023/02/18 01:24:15;;;;;;;2.30;1.33;;;;;;;10.75;100.00;99895.44;5043355;28;20040;-85
2023/02/18 01:26:42;;;;;;;2.47;1.30;;;;;;;10.72;100.00;99890.34;5050568;28;20045;-85
2023/02/18 01:29:08;;;;;;;1.75;1.45;;;;;;;10.73;100.00;99893.91;5050909;28;20041;-85
2023/02/18 01:31:35;;;;;;;1.30;1.20;;;;;;;10.83;100.00;99908.19;5040100;28;20049;-85
2023/02/18 01:34:02;;;;;;;1.95;1.10;;;;;;;10.75;100.00;99887.28;5041082;28;20064;-86
2023/02/18 01:36:28;;;;;;;2.85;1.25;;;;;;;10.72;100.00;99876.75;5048817;28;20059;-85
2023/02/18 01:38:56;;;;;;;2.08;1.15;;;;;;;10.85;100.00;99892.53;5052248;28;20144;-85
2023/02/18 01:41:23;;;;;;;2.55;1.65;;;;;;;10.74;100.00;99865.69;5042708;28;20080;-85
2023/02/18 01:44:14;;;;;;;1.98;1.65;;;;;;;10.71;100.00;99852.44;5046559;28;20041;-85
2023/02/18 01:46:41;;;;;;;1.45;1.35;;;;;;;10.83;100.00;99878.28;5049109;28;20045;-86
2023/02/18 01:49:08;;;;;;;3.88;1.42;;;;;;;10.78;100.00;99883.38;5051421;28;20061;-85
2023/02/18 01:51:39;;;;;;;3.75;1.80;;;;;;;10.75;100.00;99873.69;5039837;28;20422;-85
2023/02/18 01:54:10;;;;;;;1.30;1.20;;;;;;;10.80;100.00;99884.91;5044693;28;20049;-85
2023/02/18 01:56:40;;;;;;;3.28;1.33;;;;;;;10.69;100.00;99858.03;5047930;28;20049;-85
2023/02/18 01:59:11;;;;;;;1.38;1.27;;;;;;;10.80;100.00;99876.72;5046314;28;20044;-85
2023/02/18 02:01:39;;;;;;;2.70;1.30;;;;;;;10.81;100.00;99880.31;5043482;28;20466;-85
2023/02/18 02:04:06;;;;;;;2.17;1.40;;;;;;;10.82;100.00;99881.16;5047690;28;20056;-85
2023/02/18 02:06:33;;;;;;;5.10;1.52;;;;;;;10.82;100.00;99875.72;5038242;28;20052;-85
2023/02/18 02:09:03;;;;;;;4.57;1.35;;;;;;;10.75;100.00;99873.69;5033844;28;20052;-85
2023/02/18 02:11:47;;;;;;;2.78;1.63;;;;;;;10.77;100.00;99879.78;5040815;28;20138;-85
2023/02/18 02:14:29;;;;;;;2.53;1.30;;;;;;;10.77;100.00;99873.50;5049046;28;20052;-85
2023/02/18 02:17:03;;;;;;;4.63;1.60;;;;;;;10.62;100.00;99863.28;5045850;28;20412;-85
2023/02/18 02:19:58;;;;;;;4.50;1.52;;;;;;;10.75;100.00;99870.13;5045363;28;20063;-85
2023/02/18 02:22:53;;;;;;;2.83;1.50;;;;;;;10.61;100.00;99839.84;5043599;28;20047;-85
2023/02/18 02:25:36;;;;;;;2.45;1.50;;;;;;;10.61;100.00;99842.56;5046969;28;20057;-86
2023/02/18 02:28:30;;;;;;;1.92;1.58;;;;;;;10.59;100.00;99838.31;5041761;28;20051;-85
2023/02/18 02:31:10;;;;;;;3.55;1.63;;;;;;;10.56;100.00;99839.50;5039685;28;20061;-86
2023/02/18 02:34:22;;;;;;;1.80;1.40;;;;;;;10.61;100.00;99858.03;5047822;28;20064;-85
2023/02/18 02:36:55;;;;;;;3.60;1.55;;;;;;;10.66;100.00;99852.94;5015944;28;20408;-85
2023/02/18 02:39:30;;;;;;;1.40;1.30;;;;;;;10.64;100.00;99854.97;5047142;28;20520;-85
2023/02/18 02:42:08;;;;;;;3.97;1.50;;;;;;;10.65;100.00;99859.38;5046801;28;20053;-85
2023/02/18 02:44:42;;;;;;;2.40;1.60;;;;;;;10.56;100.00;99839.50;5040537;28;20128;-85
2023/02/18 02:47:14;;;;;;;3.33;1.70;;;;;;;10.52;100.00;99820.97;5047982;28;20606;-85
2023/02/18 02:49:48;;;;;;;3.65;1.50;;;;;;;10.52;100.00;99823.69;5044800;28;20041;-85
2023/02/18 02:52:23;;;;;;;1.77;1.38;;;;;;;10.66;100.00;99849.34;5044961;28;20046;-85
2023/02/18 02:54:51;;;;;;;2.08;1.52;;;;;;;10.51;100.00;99820.13;5050535;28;20508;-85
2023/02/18 02:57:42;;;;;;;1.38;1.27;;;;;;;10.62;100.00;99843.41;5046609;28;20051;-85
2023/02/18 03:00:11;;;;;;;2.08;1.60;;;;;;;10.55;100.00;99837.81;5040682;28;20045;-85
2023/02/18 03:02:49;;;;;;;3.15;1.38;;;;;;;10.54;100.00;99821.69;5041137;28;20048;-85
2023/02/18 03:05:25;;;;;;;1.85;1.38;;;;;;;10.63;100.00;99836.97;5033578;28;20086;-86
2023/02/18 03:08:12;;;;;;;2.20;1.50;;;;;;;10.54;100.00;99833.38;5048312;28;20051;-86
2023/02/18 03:10:50;;;;;;;2.03;1.70;;;;;;;10.56;100.00;99827.78;5047486;28;20047;-85
2023/02/18 03:13:26;;;;;;;3.42;1.70;;;;;;;10.44;100.00;99798.19;5038842;28;20048;-85
2023/02/18 03:15:56;;;;;;;2.05;1.50;;;;;;;10.64;100.00;99827.78;5047623;28;20460;-85
2023/02/18 03:18:31;;;;;;;2.13;1.88;;;;;;;10.65;100.00;99823.19;5049988;28;20051;-85
2023/02/18 03:21:04;;;;;;;2.67;1.75;;;;;;;10.61;100.00;99807.22;5049270;28;20045;-85
2023/02/18 03:23:37;;;;;;;2.30;1.73;;;;;;;10.66;100.00;99811.28;5041740;28;20536;-86
2023/02/18 03:26:04;;;;;;;2.17;1.63;;;;;;;10.63;100.00;99797.03;5048216;28;20048;-85
2023/02/18 03:28:31;;;;;;;2.30;1.75;;;;;;;10.54;100.00;99789.88;5038469;28;20053;-86
2023/02/18 03:31:02;;;;;;;3.22;1.75;;;;;;;10.62;100.00;99794.47;5048502;28;20055;-86
2023/02/18 03:33:36;;;;;;;2.05;1.52;;;;;;;10.62;100.00;99795.31;5048569;28;20049;-86
2023/02/18 03:36:03;;;;;;;3.15;1.75;;;;;;;10.67;100.00;99805.69;5042788;28;20499;-86
2023/02/18 03:38:35;;;;;;;3.80;1.88;;;;;;;10.56;100.00;99785.13;5044989;28;20060;-85
2023/02/18 03:41:02;;;;;;;1.65;1.52;;;;;;;10.71;100.00;99808.94;5036520;28;20045;-85
2023/02/18 03:43:29;;;;;;;1.50;1.38;;;;;;;10.69;100.00;99819.09;5041527;28;20048;-85
2023/02/18 03:45:55;;;;;;;2.35;1.65;;;;;;;10.64;100.00;99806.00;5042582;28;20048;-86
2023/02/18 03:48:22;;;;;;;2.00;1.52;;;;;;;10.56;100.00;99792.44;5042090;28;20056;-86
2023/02/18 03:50:49;;;;;;;2.70;1.50;;;;;;;10.68;100.00;99793.78;5042045;28;20076;-85
2023/02/18 03:53:16;;;;;;;5.75;2.10;;;;;;;10.60;100.00;99789.22;5045882;28;20041;-85
2023/02/18 03:55:43;;;;;;;2.40;1.85;;;;;;;10.69;100.00;99809.09;5041975;28;20446;-85
2023/02/18 03:58:10;;;;;;;1.95;1.75;;;;;;;10.54;100.00;99783.63;5046827;28;20056;-85
2023/02/18 04:00:37;;;;;;;3.75;2.00;;;;;;;10.60;100.00;99796.53;5046825;28;20144;-85
2023/02/18 04:03:04;;;;;;;3.70;1.98;;;;;;;10.56;100.00;99812.31;5049708;28;20055;-86
2023/02/18 04:05:30;;;;;;;3.92;3.00;;;;;;;10.53;100.00;99790.91;5050303;28;20053;-85
2023/02/18 04:07:57;;;;;;;4.85;1.60;;;;;;;10.57;100.00;99796.88;5046541;28;20049;-86
2023/02/18 04:10:23;;;;;;;2.75;1.75;;;;;;;10.42;100.00;99788.53;5043680;28;20136;-85
2023/02/18 04:12:51;;;;;;;3.55;1.85;;;;;;;10.34;100.00;99783.94;5049862;28;20079;-86
2023/02/18 04:15:18;;;;;;;4.93;2.00;;;;;;;10.27;100.00;99778.28;5044891;28;20278;-86
2023/02/18 04:17:45;;;;;;;2.20;1.70;;;;;;;10.36;100.00;99800.91;5052602;28;20049;-86
2023/02/18 04:20:12;;;;;;;1.92;1.70;;;;;;;10.36;100.00;99791.91;5051833;28;20063;-86
2023/02/18 04:22:38;;;;;;;3.60;2.00;;;;;;;10.22;100.00;99798.81;5053102;28;20052;-86
2023/02/18 04:25:06;;;;;;;2.53;1.92;;;;;;;10.15;100.00;99797.81;5042684;28;20040;-85
2023/02/18 04:27:32;;;;;;;2.08;1.60;;;;;;;10.10;100.00;99787.41;5040125;28;20043;-85
2023/02/18 04:30:00;;;;;;;3.25;2.08;;;;;;;10.11;100.00;99808.13;5050995;28;20041;-84
2023/02/18 04:32:27;;;;;;;2.28;1.88;;;;;;;10.10;100.00;99788.28;5052161;28;20052;-85
2023/02/18 04:34:53;;;;;;;5.50;2.08;;;;;;;10.07;100.00;99802.19;5048164;28;20061;-85
2023/02/18 04:37:20;;;;;;;3.78;2.00;;;;;;;10.05;100.00;99798.78;5044320;28;20053;-85
2023/02/18 04:39:47;;;;;;;2.17;1.70;;;;;;;9.98;100.00;99784.19;5054218;28;20149;-85
2023/02/18 04:42:13;;;;;;;3.65;1.92;;;;;;;9.88;100.00;99772.59;5047656;28;20044;-85
2023/02/18 04:44:40;;;;;;;2.70;2.13;;;;;;;9.98;100.00;99796.88;5048387;28;20053;-85
2023/02/18 04:47:08;;;;;;;2.78;2.10;;;;;;;9.92;100.00;99772.09;5051178;28;20147;-85
2023/02/18 04:49:34;;;;;;;2.70;2.20;;;;;;;9.96;100.00;99788.06;5050017;28;20045;-85
2023/02/18 04:52:01;;;;;;;2.70;2.00;;;;;;;9.97;100.00;99801.47;5051979;28;20060;-85
2023/02/18 04:54:28;;;;;;;2.90;2.10;;;;;;;9.92;100.00;99807.41;5048931;28;20073;-85
2023/02/18 04:56:55;;;;;;;3.63;2.30;;;;;;;9.79;100.00;99789.91;5049193;28;20162;-84
2023/02/18 04:59:21;;;;;;;3.33;2.40;;;;;;;9.85;100.00;99800.94;5052913;28;20045;-85
2023/02/18 05:01:48;;;;;;;7.38;2.00;;;;;;;9.79;100.00;99792.59;5052946;28;20045;-85
2023/02/18 05:04:17;;;;;;;5.55;2.63;;;;;;;9.72;100.00;99804.09;5050551;28;20530;-85
2023/02/18 05:06:44;;;;;;;3.25;2.25;;;;;;;9.82;100.00;99806.69;5044827;28;20055;-85
2023/02/18 05:09:11;;;;;;;4.30;2.20;;;;;;;9.77;100.00;99792.78;5044820;28;20084;-85
2023/02/18 05:11:38;;;;;;;3.58;2.28;;;;;;;9.74;100.00;99803.97;5052347;28;20047;-85
2023/02/18 05:14:04;;;;;;;3.20;2.20;;;;;;;9.92;100.00;99806.53;5044471;28;20044;-85
2023/02/18 05:16:31;;;;;;;4.10;2.65;;;;;;;9.88;100.00;99797.88;5042772;28;20045;-85
2023/02/18 05:18:58;;;;;;;2.80;2.30;;;;;;;9.88;100.00;99789.75;5047545;28;20487;-85
2023/02/18 05:21:26;;;;;;;2.42;1.75;;;;;;;9.88;100.00;99775.31;5051055;28;20144;-85
2023/02/18 05:23:53;;;;;;;3.22;1.98;;;;;;;9.80;100.00;99767.13;5051257;28;20485;-85
2023/02/18 05:26:19;;;;;;;4.28;1.90;;;;;;;9.70;100.00;99764.56;5046336;28;20049;-85
2023/02/18 05:28:46;;;;;;;2.10;1.77;;;;;;;9.84;100.00;99788.34;5053485;28;20059;-85
2023/02/18 05:31:12;;;;;;;2.40;2.00;;;;;;;9.87;100.00;99785.31;5052989;28;20048;-85
2023/02/18 05:33:42;;;;;;;3.25;2.10;;;;;;;9.84;100.00;99784.81;5046569;28;20045;-85
2023/02/18 05:36:09;;;;;;;2.92;2.38;;;;;;;9.81;100.00;99794.13;5044375;28;20053;-85
2023/02/18 05:38:37;;;;;;;3.47;2.90;;;;;;;9.86;100.00;99793.63;5046549;28;20064;-85
2023/02/18 05:41:04;;;;;;;3.95;2.78;;;;;;;9.78;100.00;99786.31;5054770;28;20420;-85
2023/02/18 05:44:28;;;;;;;4.63;3.00;;;;;;;9.69;100.00;99777.28;5053163;28;20456;-85
2023/02/18 05:46:19;;;;;;;2.65;2.00;;;;;;;9.76;100.00;99779.38;5043272;28;20060;-84
2023/02/18 05:48:46;;;;;;;4.68;2.50;;;;;;;9.75;100.00;99802.94;5049563;28;20051;-85
2023/02/18 05:51:13;;;;;;;3.30;2.40;;;;;;;9.67;100.00;99789.34;5049833;28;20056;-85
2023/02/18 05:53:41;;;;;;;2.17;1.83;;;;;;;9.59;100.00;99787.44;5052329;28;20491;-85
2023/02/18 05:56:07;;;;;;;2.30;1.88;;;;;;;9.45;100.00;99771.75;5038076;28;20051;-85
2023/02/18 05:58:34;;;;;;;2.58;1.80;;;;;;;9.46;100.00;99782.44;5052079;28;20450;-84
2023/02/18 06:01:01;;;;;;;2.63;1.75;;;;;;;9.40;100.00;99774.97;5037507;28;20049;-84
2023/02/18 06:03:27;;;;;;;2.75;1.80;;;;;;;9.46;100.00;99790.59;5049134;28;20051;-85
2023/02/18 06:05:54;;;;;;;2.25;1.50;;;;;;;9.33;100.00;99768.47;5051666;28;20135;-84
2023/02/18 06:08:20;;;;;;;1.50;1.40;;;;;;;9.26;100.00;99781.84;5046506;28;20051;-85
2023/02/18 06:10:48;;;;;;;5.82;2.58;;;;;;;9.33;100.00;99792.91;5045621;28;20485;-84
2023/02/18 06:13:15;;;;;;;1.85;1.38;;;;;;;9.38;100.00;99804.97;5046584;28;20041;-81
2023/02/18 06:15:42;;;;;;;1.60;1.50;;;;;;;9.26;100.00;99795.41;5042693;28;20536;-84
2023/02/18 06:18:08;;;;;;;1.73;1.42;;;;;;;9.23;100.00;99798.47;5046184;28;20059;-85
2023/02/18 06:20:36;;;;;;;2.50;1.70;;;;;;;9.24;100.00;99793.88;5046001;28;20056;-85
2023/02/18 06:23:02;;;;;;;2.90;1.90;;;;;;;9.29;100.00;99800.53;5043936;28;20049;-85
2023/02/18 06:25:29;;;;;;;4.80;2.10;;;;;;;9.21;100.00;99781.47;5047786;28;20045;-86
2023/02/18 06:27:57;;;;;;;1.30;1.08;;;;;;;9.20;100.00;99799.63;5044671;28;20123;-85
2023/02/18 06:30:23;;;;;;;1.85;1.48;;;;;;;9.04;100.00;99772.41;5043771;28;20041;-85
2023/02/18 06:32:50;;;;;;;4.05;1.50;;;;;;;9.20;100.00;99793.34;5042267;28;20053;-85
2023/02/18 06:35:16;;;;;;;4.10;1.45;;;;;;;9.11;100.00;99780.72;5036081;28;20049;-85
2023/02/18 06:37:44;;;;;;;3.25;1.20;;;;;;;9.06;100.00;99770.38;5050154;28;20053;-85
2023/02/18 06:40:11;;;;;;;2.85;1.48;;;;;;;9.15;100.00;99776.69;5048810;28;20060;-85
2023/02/18 06:42:38;;;;;;;1.40;1.30;;;;;;;9.17;100.00;99782.81;5049855;28;20052;-85
2023/02/18 06:45:06;;;;;;;1.95;1.30;;;;;;;9.15;100.00;99784.84;5051151;28;20055;-85
2023/02/18 06:47:33;;;;;;;1.55;1.20;;;;;;;9.09;100.00;99764.63;5047748;28;20073;-85
2023/02/18 06:50:00;;;;;;;2.28;1.52;;;;;;;9.33;100.00;99795.63;5042850;28;20488;-85
2023/02/18 06:52:26;;;;;;;1.95;1.58;;;;;;;9.20;100.00;99780.63;5039887;28;20045;-85
2023/02/18 06:54:53;;;;;;;4.13;1.25;;;;;;;9.18;100.00;99790.81;5050785;28;20139;-85
2023/02/18 06:57:19;;;;;;;1.77;1.33;;;;;;;9.06;100.00;99759.50;5045358;28;20045;-85
2023/02/18 06:59:46;;;;;;;1.88;1.45;;;;;;;9.10;100.00;99776.34;5046374;28;20055;-85
2023/02/18 07:02:14;;;;;;;2.30;1.30;;;;;;;9.02;100.00;99774.44;5046320;28;20042;-85
2023/02/18 07:04:41;;;;;;;2.20;1.45;;;;;;;9.18;100.00;99788.09;5037995;28;20128;-85
2023/02/18 07:07:07;;;;;;;3.25;1.42;;;;;;;9.14;100.00;99789.41;5046605;28;20051;-85
2023/02/18 07:09:34;;;;;;;2.58;1.65;;;;;;;9.13;100.00;99790.41;5044218;28;20051;-85
2023/02/18 07:12:00;;;;;;;1.52;1.05;;;;;;;9.17;100.00;99780.13;5047790;28;20053;-85
2023/02/18 07:14:27;;;;;;;1.33;1.08;;;;;;;9.15;100.00;99784.84;5049855;28;20051;-85
2023/02/18 07:16:54;;;;;;;1.65;1.40;;;;;;;9.16;100.00;99762.97;5049047;28;20130;-85
2023/02/18 07:19:22;;;;;;;4.20;1.33;;;;;;;9.28;100.00;99768.13;5038226;28;20053;-85
2023/02/18 07:21:49;;;;;;;1.35;1.13;;;;;;;9.35;100.00;99780.03;5045019;28;20068;-85
2023/02/18 07:24:15;;;;;;;2.85;1.30;;;;;;;9.26;100.00;99749.28;5045397;28;20045;-85
2023/02/18 07:26:45;;;;;;;2.50;1.27;;;;;;;9.19;100.00;99742.81;5047142;28;20052;-85
2023/02/18 07:29:12;;;;;;;3.78;1.30;;;;;;;9.25;100.00;99760.31;5043474;28;20044;-84
2023/02/18 07:31:41;;;;;;;2.25;1.30;;;;;;;9.39;100.00;99767.81;5051878;28;20037;-85
2023/02/18 07:34:10;;;;;;;4.43;1.30;;;;;;;9.42;100.00;99775.66;5046167;28;20055;-85
2023/02/18 07:36:42;;;;;;;1.58;1.15;;;;;;;9.47;100.00;99745.28;5046441;28;20049;-85
2023/02/18 07:39:12;;;;;;;1.88;1.50;;;;;;;9.35;100.00;99737.47;5049470;28;20045;-85
2023/02/18 07:41:41;;;;;;;1.52;1.00;;;;;;;9.60;100.00;99764.69;5047069;28;20056;-85
2023/02/18 07:44:08;;;;;;;1.80;1.02;;;;;;;9.53;100.00;99740.09;5050703;28;20049;-84
2023/02/18 07:46:35;;;;;;;1.80;1.30;;;;;;;9.66;100.00;99752.34;5048462;28;20053;-85
2023/02/18 07:49:03;;;;;;;1.20;1.10;;;;;;;9.63;100.00;99741.81;5036195;28;20056;-85
2023/02/18 07:51:32;;;;;;;1.63;1.30;;;;;;;9.61;100.00;99741.97;5036136;28;20056;-85
2023/02/18 07:54:00;;;;;;;1.45;0.93;;;;;;;9.80;100.00;99762.56;5044151;28;20049;-85
2023/02/18 07:56:27;;;;;;;2.45;1.10;;;;;;;9.73;100.00;99746.06;5054089;28;20052;-85
2023/02/18 07:58:54;;;;;;;3.50;1.10;;;;;;;9.72;100.00;99728.06;5053275;28;20049;-85
2023/02/18 08:01:20;;;;;;;3.13;1.67;;;;;;;9.79;100.00;99754.59;5052997;28;20515;-85
2023/02/18 08:03:50;;;;;;;2.17;1.17;;;;;;;9.73;100.00;99737.09;5053186;28;20048;-85
2023/02/18 08:06:22;;;;;;;1.63;1.23;;;;;;;9.84;100.00;99749.50;5053404;28;20607;-84
2023/02/18 08:08:50;;;;;;;2.88;1.92;;;;;;;9.95;100.00;99753.75;5047537;28;20137;-84
2023/02/18 08:11:18;;;;;;;6.32;1.92;;;;;;;9.92;100.00;99746.78;5053984;28;20086;-85
2023/02/18 08:13:45;;;;;;;2.28;1.52;;;;;;;9.88;100.00;99750.88;5051997;28;20489;-84
2023/02/18 08:16:11;;;;;;;2.10;1.70;;;;;;;9.90;100.00;99746.13;5051110;28;20049;-85
2023/02/18 08:18:38;;;;;;;1.83;1.50;;;;;;;9.95;100.00;99745.63;5052171;28;20045;-85
2023/02/18 08:21:05;;;;;;;4.25;1.50;;;;;;;10.00;100.00;99746.81;5052626;28;20527;-84
2023/02/18 08:23:31;;;;;;;4.22;1.60;;;;;;;10.03;100.00;99746.50;5052077;28;20049;-85
2023/02/18 08:25:58;;;;;;;7.47;1.60;;;;;;;10.09;100.00;99743.09;5050644;28;20423;-85
2023/02/18 08:28:26;;;;;;;2.90;1.33;;;;;;;10.23;100.00;99743.47;5046162;28;20045;-85
2023/02/18 08:30:54;;;;;;;2.03;1.38;;;;;;;10.26;100.00;99724.09;5043568;28;20048;-85
2023/02/18 08:33:21;;;;;;;3.65;1.67;;;;;;;10.27;100.00;99718.50;5051203;28;20492;-85
2023/02/18 08:35:50;;;;;;;3.75;1.50;;;;;;;10.30;100.00;99713.72;5049361;28;20041;-85
2023/02/18 08:38:17;;;;;;;1.73;1.25;;;;;;;10.44;100.00;99732.94;5052771;28;20053;-85
2023/02/18 08:40:43;;;;;;;3.17;1.60;;;;;;;10.39;100.00;99721.75;5052059;28;20424;-85
2023/02/18 08:43:10;;;;;;;5.90;1.52;;;;;;;10.54;100.00;99732.78;5047852;28;20049;-85
2023/02/18 08:45:39;;;;;;;2.88;1.60;;;;;;;10.62;100.00;99734.66;5045725;28;20107;-85
2023/02/18 08:48:06;;;;;;;3.05;1.73;;;;;;;10.60;100.00;99723.13;5037299;28;20041;-85
2023/02/18 08:50:33;;;;;;;2.35;1.52;;;;;;;10.66;100.00;99721.56;5051325;28;20048;-85
2023/02/18 08:53:02;;;;;;;3.25;1.63;;;;;;;10.68;100.00;99716.81;5048598;28;20048;-85
2023/02/18 08:55:28;;;;;;;2.30;1.40;;;;;;;10.92;100.00;99733.06;5052782;28;20049;-85
2023/02/18 08:57:55;;;;;;;2.33;1.63;;;;;;;10.97;100.00;99724.41;5051408;28;20404;-85
2023/02/18 09:00:22;;;;;;;6.93;1.80;;;;;;;11.04;100.00;99730.00;5045202;28;20048;-85
2023/02/18 09:02:51;;;;;;;2.92;1.77;;;;;;;11.08;100.00;99715.88;5047835;28;20045;-85
2023/02/18 09:05:21;;;;;;;6.72;2.22;;;;;;;11.04;99.39;99700.91;5048152;28;20041;-84
2023/02/18 09:07:48;;;;;;;;;;;;;;;11.26;96.71;99740.13;5035700;28;20504;-82
2023/02/18 09:10:17;;;;;;;3.53;1.85;;;;;;;11.30;95.00;99710.69;5054208;28;20357;-83
2023/02/18 09:12:43;;;;;;;3.47;1.67;;;;;;;11.47;94.25;99725.06;5057885;28;20107;-85
2023/02/18 09:15:10;;;;;;;1.60;1.42;;;;;;;11.63;92.26;99721.44;5055175;28;20092;-85
2023/02/18 09:17:40;;;;;;;3.47;1.45;;;;;;;11.67;92.97;99722.78;5053099;28;20591;-86
2023/02/18 09:20:09;;;;;;;5.63;1.80;;;;;;;11.73;90.92;99710.28;5042764;28;20056;-85
2023/02/18 09:22:36;;;;;;;2.33;1.52;;;;;;;11.78;90.74;99719.63;5037910;28;20532;-85
2023/02/18 09:25:03;;;;;;;2.28;1.30;;;;;;;11.79;90.68;99696.81;5038750;28;20151;-86
2023/02/18 09:27:30;;;;;;;4.03;1.25;;;;;;;11.90;90.52;99701.00;5052569;28;20051;-86
2023/02/18 09:29:56;;;;;;;1.90;1.40;;;;;;;11.84;90.34;99682.66;5052572;28;20049;-85
2023/02/18 09:32:23;;;;;;;4.05;1.38;;;;;;;11.87;89.71;99687.75;5048526;28;20044;-85
2023/02/18 09:34:50;;;;;;;4.18;1.25;;;;;;;11.93;88.18;99697.94;5051291;28;20053;-85
2023/02/18 09:37:18;;;;;;;2.72;1.33;;;;;;;11.97;87.73;99684.84;5052973;28;20393;-86
2023/02/18 09:39:45;;;;;;;1.63;1.10;;;;;;;11.96;88.26;99685.84;5052663;28;20063;-86
2023/02/18 09:42:14;;;;;;;1.83;1.10;;;;;;;12.08;88.11;99683.56;5052654;28;20135;-85
2023/02/18 09:44:46;;;;;;;2.50;1.10;;;;;;;12.15;88.17;99679.03;5053072;28;20115;-86
2023/02/18 09:47:18;;;;;;;4.55;1.70;;;;;;;12.19;87.50;99683.97;5052414;28;20052;-86
2023/02/18 09:49:49;;;;;;;2.80;1.10;;;;;;;12.29;87.73;99691.06;5050572;28;20052;-86
2023/02/18 09:52:22;;;;;;;3.30;1.10;;;;;;;12.23;87.44;99689.91;5051929;28;20052;-86
2023/02/18 09:54:50;;;;;;;3.60;1.40;;;;;;;12.24;87.39;99690.75;5051548;28;20484;-86
2023/02/18 09:57:23;;;;;;;2.78;1.40;;;;;;;12.14;86.57;99661.84;5042412;28;20053;-86
2023/02/18 09:59:57;;;;;;;1.42;1.20;;;;;;;12.20;86.83;99682.09;5049069;28;20053;-86
2023/02/18 10:02:28;;;;;;;1.88;1.17;;;;;;;12.38;86.47;99685.34;5048393;28;20957;-86
2023/02/18 10:04:58;;;;;;;1.38;1.20;;;;;;;12.35;86.32;99709.41;5053124;28;20048;-86
2023/02/18 10:07:31;;;;;;;;;;;;;;;12.41;86.37;99724.19;5046494;28;20401;-87
2023/02/18 10:10:12;;;;;;;3.90;0.98;;;;;;;12.23;86.95;99683.63;5052384;28;19935;-86
2023/02/18 10:12:40;;;;;;;2.20;0.80;;;;;;;12.35;86.94;99715.69;5052693;28;20056;-87
2023/02/18 10:15:22;;;;;;;1.15;0.80;;;;;;;12.27;85.95;99725.81;5047678;28;20049;-87
2023/02/18 10:17:52;;;;;;;1.73;1.05;;;;;;;12.40;85.53;99731.50;5043522;28;20045;-84
2023/02/18 10:20:23;;;;;;;3.55;1.08;;;;;;;12.33;86.15;99730.53;5052914;28;20064;-86
2023/02/18 10:22:54;;;;;;;3.13;1.45;;;;;;;12.19;85.16;99716.69;5049139;28;20048;-87
2023/02/18 10:25:24;;;;;;;1.67;1.00;;;;;;;12.20;84.18;99712.91;5046882;28;20601;-86
2023/02/18 10:27:52;;;;;;;3.05;1.50;;;;;;;12.12;83.33;99701.22;5043664;28;20072;-86
2023/02/18 10:30:24;;;;;;;2.72;1.27;;;;;;;12.13;84.31;99705.66;5051277;28;20071;-87
2023/02/18 10:32:56;;;;;;;2.58;0.93;;;;;;;12.15;84.68;99714.47;5037439;28;20064;-86
2023/02/18 10:35:28;;;;;;;5.35;1.20;;;;;;;12.21;85.82;99721.97;5048783;28;20124;-88
2023/02/18 10:38:12;;;;;;;0.95;0.85;;;;;;;12.15;86.14;99715.34;5049023;28;20057;-87
2023/02/18 10:40:51;;;;;;;2.55;1.30;;;;;;;12.11;85.86;99692.22;5046805;28;20512;-86
2023/02/18 10:43:25;;;;;;;1.42;1.10;;;;;;;12.31;87.12;99703.44;5051042;28;20424;-88
2023/02/18 10:46:00;;;;;;;3.13;0.90;;;;;;;12.32;85.22;99701.59;5045904;28;20045;-87
2023/02/18 10:48:46;;;;;;;2.47;1.05;;;;;;;12.25;86.56;99704.19;5050531;28;20524;-83
2023/02/18 10:51:20;;;;;;;1.52;1.00;;;;;;;12.28;86.78;99706.53;5048391;28;20048;-86
2023/02/18 10:53:51;;;;;;;2.03;1.23;;;;;;;12.19;87.14;99689.44;5045856;28;20131;-83
2023/02/18 10:56:33;;;;;;;1.20;1.10;;;;;;;12.19;87.32;99692.16;5040942;28;20059;-83
2023/02/18 10:59:10;;;;;;;2.42;1.27;;;;;;;12.19;88.01;99700.34;5050162;28;20150;-83
2023/02/18 11:01:38;;;;;;;1.45;1.00;;;;;;;12.15;88.14;99689.94;5044849;28;20115;-85
2023/02/18 11:04:12;;;;;;;4.28;1.30;;;;;;;12.23;87.60;99686.34;5036902;28;20389;-85
2023/02/18 11:06:43;;;;;;;2.60;1.13;;;;;;;12.31;87.53;99692.53;5051227;28;20561;-85
2023/02/18 11:09:26;;;;;;;1.58;1.00;;;;;;;12.19;86.54;99678.53;5051118;28;20498;-85
2023/02/18 11:12:01;;;;;;;1.10;1.00;;;;;;;12.37;86.55;99700.03;5048290;28;20419;-86
2023/02/18 11:14:38;;;;;;;2.00;1.20;;;;;;;12.36;87.55;99675.63;5050442;28;20724;-86
2023/02/18 11:17:13;;;;;;;0.75;0.75;;;;;;;12.33;87.76;99685.06;5051722;28;20044;-88
2023/02/18 11:19:39;;;;;;;1.50;1.10;;;;;;;12.37;87.05;99691.84;5049573;28;20061;-88
2023/02/18 11:22:14;;;;;;;1.85;1.50;;;;;;;12.32;87.27;99669.72;5053462;28;20041;-87
2023/02/18 11:24:47;;;;;;;1.20;0.90;;;;;;;12.21;87.08;99675.63;5050031;28;20578;-87
2023/02/18 11:27:21;;;;;;;6.15;1.00;;;;;;;12.22;85.83;99663.66;5052727;28;20473;-89
2023/02/18 11:29:51;;;;;;;1.38;0.57;;;;;;;12.37;84.58;99675.47;5048566;28;20048;-88
2023/02/18 11:32:18;;;;;;;2.92;0.90;;;;;;;12.37;86.25;99680.06;5045065;28;20518;-88
2023/02/18 11:34:45;;;;;;;2.63;1.02;;;;;;;12.27;85.74;99663.09;5051272;28;20048;-88
2023/02/18 11:37:17;;;;;;;2.63;1.00;;;;;;;12.30;85.03;99669.06;5049465;28;20099;-89
2023/02/18 11:39:48;;;;;;;1.77;1.10;;;;;;;12.29;86.21;99661.91;5053226;28;20459;-87